»·PEaware :: QXE554 KBZN-KPDX

QXE554 :: KBZN-KPDX

FLIGHT INFORMATION

Flight Status: Arrived
Operator:
Horizon Air
More flights by this operator :: More flights under this callsign
Pilot: Matthew M. (2702)
Aircraft: DEHAVILLAND DASH 8 400
(DH8D)
More flights by this aircraft type
Origin: KBZN Gallatin
United States
Destination: KPDX Portland Intl
United States
More flights between these airports :: More routes between these airports
Route: TEERX3 HIA J16 PDT BAYYR HHOOD3
File this flight plan on PilotEdge
Remarks: PBN / D1 DOF / 170409 REG / N442QX EET / KZSE0036 OPR / QXE RMK / TCAS SIMBRIEF
Altitude:
(Current/Filed)
24,000ft
Speed:
(Current/Filed)
318kts
Departed: 08-Apr-17 08:49 PM
Arrived: 08-Apr-17 10:27 PM
Distance/Time
Traveled:
479nm/1:37
Distance/Time
To Go:
Arrived

Flight Plot

Page will automatically refresh every two minutes.

Flight plan parsing failed; only flown route is shown


Map Options




Map Legend


Flown Route
Filed Route
Departure Airport
Arrival Airport
Navaid (VOR, NDB)
Fix

Horizontal Profiles

Position Reports

Time Latitude Longitude Heading Altitude Ground
Speed
08-Apr-17 20:11 45.778239 -111.159692 249 4478ft 0kts
08-Apr-17 20:12 45.778239 -111.159692 249 4478ft 0kts
08-Apr-17 20:13 45.778239 -111.159692 249 4478ft 0kts
08-Apr-17 20:14 45.778239 -111.159692 249 4478ft 0kts
08-Apr-17 20:15 45.778239 -111.159692 249 4478ft 0kts
08-Apr-17 20:16 45.778239 -111.159692 249 4478ft 0kts
08-Apr-17 20:17 45.778239 -111.159692 249 4478ft 0kts
08-Apr-17 20:18 45.778239 -111.159692 249 4478ft 0kts
08-Apr-17 20:19 45.778239 -111.159692 249 4478ft 0kts
08-Apr-17 20:20 45.778239 -111.159692 249 4478ft 0kts
08-Apr-17 20:21 45.778239 -111.159692 249 4478ft 0kts
08-Apr-17 20:22 45.778239 -111.159692 249 4478ft 0kts
08-Apr-17 20:23 45.778239 -111.159692 249 4478ft 0kts
08-Apr-17 20:24 45.778239 -111.159692 249 4478ft 0kts
08-Apr-17 20:25 45.778239 -111.159692 249 4478ft 0kts
08-Apr-17 20:26 45.778239 -111.159692 249 4478ft 0kts
08-Apr-17 20:27 45.778239 -111.159692 249 4478ft 0kts
08-Apr-17 20:28 45.778239 -111.159692 249 4478ft 0kts
08-Apr-17 20:29 45.778239 -111.159693 249 4478ft 0kts
08-Apr-17 20:30 45.778239 -111.159693 249 4478ft 0kts
08-Apr-17 20:31 45.778239 -111.159693 249 4478ft 0kts
08-Apr-17 20:32 45.778239 -111.159693 249 4478ft 0kts
08-Apr-17 20:33 45.778239 -111.159693 249 4478ft 0kts
08-Apr-17 20:34 45.778239 -111.159693 249 4478ft 0kts
08-Apr-17 20:35 45.778239 -111.159693 249 4478ft 0kts
08-Apr-17 20:36 45.778365 -111.158985 271 4478ft 2kts
08-Apr-17 20:37 45.778214 -111.158548 315 4478ft 0kts
08-Apr-17 20:38 45.778214 -111.158548 315 4478ft 0kts
08-Apr-17 20:39 45.778214 -111.158548 315 4478ft 0kts
08-Apr-17 20:40 45.778214 -111.158548 315 4478ft 0kts
08-Apr-17 20:41 45.778214 -111.158548 315 4478ft 0kts
08-Apr-17 20:42 45.778739 -111.159234 328 4478ft 10kts
08-Apr-17 20:43 45.777163 -111.155365 137 4478ft 23kts
08-Apr-17 20:44 45.771960 -111.148141 136 4478ft 23kts
08-Apr-17 20:45 45.769523 -111.143437 42 4478ft 8kts
08-Apr-17 20:46 45.769775 -111.143092 44 4478ft 0kts
08-Apr-17 20:47 45.769775 -111.143092 44 4478ft 0kts
08-Apr-17 20:48 45.769775 -111.143092 44 4478ft 0kts
08-Apr-17 20:49 45.770335 -111.142348 28 4478ft 13kts
08-Apr-17 20:50 45.777807 -111.152386 316 4479ft 121kts
08-Apr-17 20:51 45.806258 -111.196353 312 6004ft 170kts
08-Apr-17 20:52 45.803652 -111.258429 222 8134ft 201kts
08-Apr-17 20:53 45.768562 -111.322401 239 10695ft 204kts
08-Apr-17 20:54 45.740987 -111.395356 243 12896ft 210kts
08-Apr-17 20:55 45.729281 -111.476031 274 14277ft 214kts
08-Apr-17 20:56 45.738067 -111.560926 274 15506ft 220kts
08-Apr-17 20:57 45.748037 -111.648900 277 16695ft 226kts
08-Apr-17 20:58 45.766987 -111.736580 281 17797ft 232kts
08-Apr-17 20:59 45.786903 -111.825970 280 18822ft 236kts
08-Apr-17 21:00 45.806748 -111.916601 280 19722ft 240kts
08-Apr-17 21:01 45.827375 -112.011774 280 20151ft 261kts
08-Apr-17 21:02 45.849401 -112.112484 280 20780ft 265kts
08-Apr-17 21:03 45.862804 -112.215497 263 21350ft 261kts
08-Apr-17 21:04 45.862858 -112.320354 263 22024ft 264kts
08-Apr-17 21:05 45.863304 -112.426039 263 22592ft 267kts
08-Apr-17 21:06 45.863591 -112.530816 262 23095ft 269kts
08-Apr-17 21:07 45.863791 -112.638568 262 23633ft 272kts
08-Apr-17 21:08 45.863789 -112.748921 261 23844ft 283kts
08-Apr-17 21:09 45.863729 -112.865465 262 23853ft 300kts
08-Apr-17 21:10 45.863581 -112.988226 262 23853ft 316kts
08-Apr-17 21:11 45.863316 -113.116038 262 23854ft 325kts
08-Apr-17 21:12 45.862936 -113.246798 262 23858ft 331kts
08-Apr-17 21:13 45.862304 -113.379424 261 23863ft 336kts
08-Apr-17 21:14 45.861541 -113.512381 261 23874ft 339kts
08-Apr-17 21:15 45.860604 -113.647331 261 23883ft 340kts
08-Apr-17 21:16 45.859520 -113.780519 260 23889ft 342kts
08-Apr-17 21:17 45.858240 -113.916675 260 23904ft 343kts
08-Apr-17 21:18 45.856751 -114.053661 260 23917ft 344kts
08-Apr-17 21:19 45.855166 -114.190914 260 23955ft 346kts
08-Apr-17 21:20 45.853386 -114.328896 260 23974ft 347kts
08-Apr-17 21:21 45.851416 -114.466686 260 23981ft 349kts
08-Apr-17 21:22 45.849299 -114.604729 260 23989ft 350kts
08-Apr-17 21:23 45.846975 -114.744810 260 24000ft 351kts
08-Apr-17 21:24 45.844437 -114.884829 261 24012ft 352kts
08-Apr-17 21:25 45.841787 -115.025331 261 24022ft 354kts
08-Apr-17 21:26 45.839008 -115.163286 261 24031ft 355kts
08-Apr-17 21:27 45.836003 -115.304507 261 24038ft 356kts
08-Apr-17 21:28 45.832823 -115.445647 262 24044ft 358kts
08-Apr-17 21:29 45.829446 -115.588112 262 24049ft 359kts
08-Apr-17 21:30 45.825875 -115.731203 262 24033ft 361kts
08-Apr-17 21:31 45.822148 -115.874917 262 24024ft 362kts
08-Apr-17 21:32 45.818167 -116.018968 262 24015ft 363kts
08-Apr-17 21:33 45.814109 -116.163323 262 24011ft 363kts
08-Apr-17 21:34 45.809785 -116.309922 262 24010ft 363kts
08-Apr-17 21:35 45.805151 -116.454426 262 24012ft 362kts
08-Apr-17 21:36 45.800523 -116.595388 262 24016ft 361kts
08-Apr-17 21:37 45.795634 -116.738506 263 24022ft 360kts
08-Apr-17 21:38 45.790649 -116.880285 263 24027ft 355kts
08-Apr-17 21:39 45.785429 -117.020284 263 24032ft 351kts
08-Apr-17 21:40 45.780200 -117.159687 264 24048ft 348kts
08-Apr-17 21:41 45.774894 -117.296462 264 24058ft 345kts
08-Apr-17 21:42 45.769442 -117.433153 264 24061ft 344kts
08-Apr-17 21:43 45.763872 -117.569220 265 24065ft 342kts
08-Apr-17 21:44 45.758162 -117.704392 265 24069ft 341kts
08-Apr-17 21:45 45.752271 -117.839909 265 24075ft 341kts
08-Apr-17 21:46 45.746163 -117.976535 265 24077ft 344kts
08-Apr-17 21:47 45.739678 -118.116371 265 24069ft 347kts
08-Apr-17 21:48 45.733113 -118.256448 265 24066ft 348kts
08-Apr-17 21:49 45.726203 -118.398562 265 24066ft 349kts
08-Apr-17 21:50 45.719246 -118.538053 265 24066ft 348kts
08-Apr-17 21:51 45.712254 -118.675201 265 24070ft 344kts
08-Apr-17 21:52 45.705210 -118.810291 265 24072ft 342kts
08-Apr-17 21:53 45.698033 -118.944555 265 24073ft 339kts
08-Apr-17 21:54 45.690466 -119.077765 265 24077ft 338kts
08-Apr-17 21:55 45.682538 -119.210515 265 24084ft 336kts
08-Apr-17 21:56 45.674653 -119.339716 265 24089ft 335kts
08-Apr-17 21:57 45.666485 -119.471462 265 24090ft 334kts
08-Apr-17 21:58 45.658133 -119.603596 265 24090ft 333kts
08-Apr-17 21:59 45.649694 -119.734509 265 24090ft 332kts
08-Apr-17 22:00 45.641162 -119.865042 265 24092ft 332kts
08-Apr-17 22:01 45.632438 -119.995640 265 24095ft 332kts
08-Apr-17 22:02 45.623579 -120.125467 265 24102ft 331kts
08-Apr-17 22:03 45.614689 -120.254757 265 24121ft 330kts
08-Apr-17 22:04 45.605585 -120.383958 265 24129ft 330kts
08-Apr-17 22:05 45.596367 -120.513030 265 24136ft 330kts
08-Apr-17 22:06 45.587238 -120.639700 265 24139ft 330kts
08-Apr-17 22:07 45.577673 -120.769082 265 24161ft 330kts
08-Apr-17 22:08 45.568043 -120.897638 265 24167ft 330kts
08-Apr-17 22:09 45.558430 -121.024532 264 24171ft 330kts
08-Apr-17 22:10 45.548364 -121.155640 265 22643ft 341kts
08-Apr-17 22:11 45.537828 -121.290208 264 20630ft 342kts
08-Apr-17 22:12 45.528353 -121.423202 269 18789ft 335kts
08-Apr-17 22:13 45.529248 -121.553760 271 17012ft 329kts
08-Apr-17 22:14 45.529537 -121.679157 270 15309ft 304kts
08-Apr-17 22:15 45.531706 -121.791376 273 13783ft 284kts
08-Apr-17 22:16 45.536253 -121.899894 272 12307ft 268kts
08-Apr-17 22:17 45.552098 -121.998185 292 10932ft 249kts
08-Apr-17 22:18 45.580578 -122.084616 293 9627ft 232kts
08-Apr-17 22:19 45.606897 -122.163972 293 8429ft 222kts
08-Apr-17 22:20 45.630677 -122.240255 294 7995ft 199kts
08-Apr-17 22:21 45.665003 -122.295368 316 7979ft 177kts
08-Apr-17 22:22 45.704966 -122.342482 316 8022ft 226kts
08-Apr-17 22:23 45.746831 -122.407936 278 6699ft 242kts
08-Apr-17 22:24 45.707880 -122.465401 193 4347ft 233kts
08-Apr-17 22:25 45.657950 -122.510087 222 2421ft 203kts
08-Apr-17 22:26 45.629807 -122.548729 227 1629ft 130kts
08-Apr-17 22:27 45.599420 -122.592663 223 189ft 125kts
08-Apr-17 22:28 45.585986 -122.611072 144 37ft 16kts
08-Apr-17 22:29 45.586136 -122.608548 90 38ft 20kts
08-Apr-17 22:30 45.584787 -122.598098 119 37ft 38kts
08-Apr-17 22:31 45.584972 -122.590001 30 37ft 5kts
08-Apr-17 22:32 45.584978 -122.589997 30 37ft 0kts
08-Apr-17 22:33 45.584978 -122.589997 30 37ft 0kts
08-Apr-17 22:34 45.584978 -122.589997 30 37ft 0kts
08-Apr-17 22:35 45.584979 -122.589996 30 37ft 0kts
08-Apr-17 22:36 45.584979 -122.589996 30 37ft 0kts
08-Apr-17 22:37 45.584979 -122.589996 30 37ft 0kts
08-Apr-17 22:38 45.584979 -122.589996 30 37ft 0kts
08-Apr-17 22:39 45.584979 -122.589996 30 37ft 0kts
08-Apr-17 22:40 45.584979 -122.589996 30 37ft 0kts
08-Apr-17 22:41 45.584979 -122.589996 30 37ft 0kts
08-Apr-17 22:42 45.584979 -122.589996 30 37ft 0kts

Navigation Log

Ident Type
Flight plan parsing failed, navigation log unavailable